createdAt,value
2023-04-18T00:01:50.464Z,14.80
2023-04-18T00:04:19.572Z,13.80
2023-04-18T00:06:50.057Z,14.13
2023-04-18T00:09:20.927Z,13.43
2023-04-18T00:11:49.168Z,13.37
2023-04-18T00:14:17.236Z,13.47
2023-04-18T00:16:46.273Z,14.20
2023-04-18T00:19:16.503Z,17.23
2023-04-18T00:21:45.074Z,13.23
2023-04-18T00:24:14.780Z,12.43
2023-04-18T00:26:42.917Z,15.17
2023-04-18T00:29:11.007Z,14.83
2023-04-18T00:31:39.147Z,13.70
2023-04-18T00:34:07.779Z,13.23
2023-04-18T00:36:35.739Z,12.50
2023-04-18T00:39:03.749Z,12.23
2023-04-18T00:41:33.398Z,15.37
2023-04-18T00:44:01.579Z,13.37
2023-04-18T00:46:29.881Z,12.50
2023-04-18T00:48:58.147Z,11.27
2023-04-18T00:51:28.047Z,14.43
2023-04-18T00:53:56.478Z,11.57
2023-04-18T00:56:26.116Z,14.33
2023-04-18T00:58:55.692Z,13.77
2023-04-18T01:01:24.110Z,13.53
2023-04-18T01:03:52.429Z,14.87
2023-04-18T01:06:20.868Z,12.97
2023-04-18T01:08:49.574Z,13.00
2023-04-18T01:11:19.064Z,13.27
2023-04-18T01:14:02.107Z,14.73
2023-04-18T01:16:33.851Z,14.90
2023-04-18T01:19:02.350Z,17.20
2023-04-18T01:21:31.439Z,12.73
2023-04-18T01:24:01.842Z,13.53
2023-04-18T01:26:31.746Z,13.27
2023-04-18T01:28:59.619Z,14.13
2023-04-18T01:31:27.891Z,13.00
2023-04-18T01:33:56.093Z,12.97
2023-04-18T01:36:24.407Z,15.60
2023-04-18T01:38:52.556Z,13.57
2023-04-18T01:41:20.659Z,12.50
2023-04-18T01:43:51.277Z,17.03
2023-04-18T01:46:19.660Z,14.90
2023-04-18T01:48:50.076Z,13.63
2023-04-18T01:51:21.769Z,14.50
2023-04-18T01:53:50.137Z,14.83
2023-04-18T01:56:18.376Z,15.70
2023-04-18T01:58:46.672Z,16.23
2023-04-18T02:01:16.261Z,14.70
2023-04-18T02:03:45.037Z,14.33
2023-04-18T02:06:14.663Z,14.40
2023-04-18T02:08:42.567Z,14.27
2023-04-18T02:11:10.468Z,14.50
2023-04-18T02:13:38.457Z,16.67
2023-04-18T02:16:13.739Z,13.63
2023-04-18T02:18:52.926Z,12.43
2023-04-18T02:21:22.059Z,14.07
2023-04-18T02:23:53.569Z,14.17
2023-04-18T02:26:23.165Z,13.77
2023-04-18T02:28:51.558Z,14.13
2023-04-18T02:31:19.662Z,12.93
2023-04-18T02:33:48.137Z,12.90
2023-04-18T02:36:18.652Z,14.50
2023-04-18T02:38:46.702Z,12.50
2023-04-18T02:41:17.407Z,13.50
2023-04-18T02:43:45.978Z,12.67
2023-04-18T02:46:16.642Z,13.07
2023-04-18T02:48:47.942Z,11.70
2023-04-18T02:51:20.070Z,13.00
2023-04-18T02:53:54.861Z,13.33
2023-04-18T02:56:23.863Z,11.97
2023-04-18T02:59:24.356Z,13.97
2023-04-18T03:02:24.716Z,14.60
2023-04-18T03:04:57.585Z,13.07
2023-04-18T03:07:27.074Z,15.93
2023-04-18T03:09:55.208Z,13.00
2023-04-18T03:12:27.890Z,14.33
2023-04-18T03:14:56.346Z,13.17
2023-04-18T03:17:24.685Z,13.47
2023-04-18T03:19:53.684Z,13.37
2023-04-18T03:22:22.146Z,11.83
2023-04-18T03:25:02.178Z,12.37
2023-04-18T03:27:43.322Z,12.07
2023-04-18T03:30:15.304Z,16.00
2023-04-18T03:32:46.629Z,12.03
2023-04-18T03:35:14.811Z,13.17
2023-04-18T03:37:43.152Z,13.77
2023-04-18T03:40:13.667Z,13.27
2023-04-18T03:42:42.837Z,12.63
2023-04-18T03:45:12.900Z,12.87
2023-04-18T03:47:41.536Z,13.97
2023-04-18T03:50:10.289Z,12.97
2023-04-18T03:52:40.222Z,14.70
2023-04-18T03:55:09.110Z,12.73
2023-04-18T03:57:39.477Z,13.37
2023-04-18T04:00:12.937Z,13.50
2023-04-18T04:02:44.341Z,14.80
2023-04-18T04:05:19.844Z,14.00
2023-04-18T04:07:48.248Z,11.83
2023-04-18T04:10:16.515Z,13.37
2023-04-18T04:12:46.826Z,13.07
2023-04-18T04:15:15.172Z,17.00
2023-04-18T04:17:51.297Z,17.73
2023-04-18T04:20:24.197Z,14.80
2023-04-18T04:22:58.986Z,14.67
2023-04-18T04:25:28.634Z,14.60
2023-04-18T04:28:02.640Z,14.17
2023-04-18T04:30:34.050Z,14.80
2023-04-18T04:33:03.506Z,15.57
2023-04-18T04:35:32.203Z,16.63
2023-04-18T04:38:01.725Z,14.30
2023-04-18T04:40:39.825Z,15.10
2023-04-18T04:43:15.725Z,14.60
2023-04-18T04:45:51.631Z,16.87
2023-04-18T04:48:24.908Z,18.23
2023-04-18T04:50:55.612Z,15.20
2023-04-18T04:53:24.524Z,16.63
2023-04-18T04:55:53.237Z,14.53
2023-04-18T04:58:22.923Z,14.57
2023-04-18T05:01:18.723Z,14.27
2023-04-18T05:03:47.254Z,15.20
2023-04-18T05:06:20.535Z,16.67
2023-04-18T05:08:48.905Z,14.47
2023-04-18T05:11:17.281Z,15.10
2023-04-18T05:13:46.526Z,15.27
2023-04-18T05:16:15.029Z,13.93
2023-04-18T05:18:43.271Z,13.70
2023-04-18T05:21:11.263Z,17.80
2023-04-18T05:23:39.234Z,14.20
2023-04-18T05:26:07.952Z,14.60
2023-04-18T05:28:35.856Z,15.47
2023-04-18T05:31:05.177Z,15.23
2023-04-18T05:33:33.240Z,14.30
2023-04-18T05:36:02.084Z,14.07
2023-04-18T05:38:30.175Z,14.07
2023-04-18T05:41:00.272Z,14.97
2023-04-18T05:43:29.027Z,15.83
2023-04-18T05:45:58.013Z,13.50
2023-04-18T05:48:27.507Z,13.47
2023-04-18T05:50:55.890Z,14.03
2023-04-18T05:53:24.108Z,15.07
2023-04-18T05:55:52.060Z,13.47
2023-04-18T05:58:19.981Z,15.60
2023-04-18T06:00:48.541Z,15.87
2023-04-18T06:03:16.945Z,13.43
2023-04-18T06:05:46.881Z,14.47
2023-04-18T06:08:14.980Z,16.00
2023-04-18T06:10:43.197Z,14.87
2023-04-18T06:13:11.185Z,16.10
2023-04-18T06:15:39.536Z,13.80
2023-04-18T06:18:07.895Z,14.53
2023-04-18T06:20:36.273Z,16.23
2023-04-18T06:23:05.694Z,15.47
2023-04-18T06:25:33.746Z,14.23
2023-04-18T06:28:01.962Z,15.50
2023-04-18T06:30:30.064Z,16.23
2023-04-18T06:32:58.821Z,15.57
2023-04-18T06:35:26.972Z,14.87
2023-04-18T06:37:55.909Z,14.90
2023-04-18T06:40:25.362Z,14.03
2023-04-18T06:42:53.360Z,15.90
2023-04-18T06:45:21.717Z,17.30
2023-04-18T06:47:51.521Z,14.97
2023-04-18T06:50:20.027Z,14.40
2023-04-18T06:52:48.472Z,15.87
2023-04-18T06:55:18.993Z,15.13
2023-04-18T06:57:48.714Z,16.33
2023-04-18T07:00:17.328Z,14.03
2023-04-18T07:02:45.738Z,13.93
2023-04-18T07:05:15.013Z,13.90
2023-04-18T07:07:46.139Z,14.40
2023-04-18T07:10:14.972Z,15.83
2023-04-18T07:12:45.754Z,14.20
2023-04-18T07:15:17.012Z,16.47
2023-04-18T07:17:45.270Z,13.47
2023-04-18T07:20:14.453Z,13.93
2023-04-18T07:22:42.832Z,14.73
2023-04-18T07:25:10.920Z,13.90
2023-04-18T07:27:39.160Z,18.33
2023-04-18T07:30:08.761Z,13.70
2023-04-18T07:32:41.150Z,13.40
2023-04-18T07:35:10.139Z,13.20
2023-04-18T07:37:38.074Z,14.13
2023-04-18T07:40:08.159Z,14.03
2023-04-18T07:42:36.464Z,15.13
2023-04-18T07:45:05.476Z,15.00
2023-04-18T07:47:34.018Z,15.93
2023-04-18T07:50:04.524Z,13.73
2023-04-18T07:52:32.631Z,15.43
2023-04-18T07:55:00.796Z,14.03
2023-04-18T07:57:28.934Z,15.80
2023-04-18T07:59:57.177Z,13.87
2023-04-18T08:02:26.462Z,14.43
2023-04-18T08:04:56.289Z,14.30
2023-04-18T08:07:30.018Z,14.90
2023-04-18T08:09:58.799Z,14.07
2023-04-18T08:12:27.002Z,14.87
2023-04-18T08:14:55.701Z,15.07
2023-04-18T08:17:24.812Z,14.87
2023-04-18T08:19:52.939Z,13.47
2023-04-18T08:22:20.932Z,14.40
2023-04-18T08:27:25.763Z,15.83
2023-04-18T08:29:53.777Z,14.10
2023-04-18T08:32:22.123Z,14.33
2023-04-18T08:34:51.188Z,13.93
2023-04-18T08:37:20.469Z,15.10
2023-04-18T08:39:49.686Z,15.47
2023-04-18T08:42:21.599Z,14.67
2023-04-18T08:44:51.473Z,15.03
2023-04-18T08:47:21.915Z,14.77
2023-04-18T08:49:52.301Z,14.53
2023-04-18T08:52:24.092Z,13.57
2023-04-18T08:54:52.710Z,14.40
2023-04-18T08:57:26.904Z,14.80
2023-04-18T08:59:56.479Z,15.13
2023-04-18T09:02:39.087Z,13.27
2023-04-18T09:05:13.593Z,14.67
2023-04-18T09:07:42.464Z,14.70
2023-04-18T09:10:13.897Z,14.23
2023-04-18T09:12:49.890Z,13.27
2023-04-18T09:15:22.602Z,13.57
2023-04-18T09:17:54.066Z,13.73
2023-04-18T09:20:37.991Z,13.40
2023-04-18T09:23:10.742Z,13.60
2023-04-18T09:25:46.629Z,14.10
2023-04-18T09:28:28.051Z,13.87
2023-04-18T09:30:57.572Z,15.23
2023-04-18T09:33:29.991Z,13.50
2023-04-18T09:36:01.178Z,13.83
2023-04-18T09:38:44.146Z,13.60
2023-04-18T09:41:13.215Z,12.57
2023-04-18T09:43:42.693Z,14.17
2023-04-18T09:46:10.987Z,13.30
2023-04-18T09:48:39.870Z,12.60
2023-04-18T09:51:11.743Z,13.57
2023-04-18T09:53:41.404Z,11.87
2023-04-18T09:56:13.845Z,12.30
2023-04-18T09:58:48.551Z,12.13
2023-04-18T10:01:17.048Z,12.23
2023-04-18T10:03:48.781Z,10.80
2023-04-18T10:06:18.236Z,11.13
2023-04-18T10:08:46.627Z,10.77
2023-04-18T10:11:15.839Z,10.40
2023-04-18T10:13:49.123Z,10.73
2023-04-18T10:16:18.185Z,9.80
2023-04-18T10:18:46.464Z,10.10
2023-04-18T10:21:15.369Z,10.03
2023-04-18T10:23:43.489Z,9.73
2023-04-18T10:26:12.148Z,9.63
2023-04-18T10:28:54.364Z,9.67
2023-04-18T10:31:23.337Z,9.63
2023-04-18T10:34:03.744Z,9.13
2023-04-18T10:36:33.105Z,10.70
2023-04-18T10:39:22.384Z,11.30
2023-04-18T10:41:51.530Z,9.63
2023-04-18T10:44:24.545Z,9.10
2023-04-18T10:47:24.505Z,9.97
2023-04-18T10:50:06.094Z,10.07
2023-04-18T10:52:35.507Z,9.13
2023-04-18T10:55:16.877Z,10.00
2023-04-18T10:57:46.064Z,9.57
2023-04-18T11:00:18.027Z,8.90
2023-04-18T11:02:51.311Z,10.10
2023-04-18T11:05:25.647Z,9.93
2023-04-18T11:07:56.933Z,10.63
2023-04-18T11:10:26.881Z,9.60
2023-04-18T11:12:56.408Z,9.00
2023-04-18T11:15:29.132Z,9.50
2023-04-18T11:18:02.923Z,8.53
2023-04-18T11:20:43.346Z,8.77
2023-04-18T11:23:25.981Z,8.57
2023-04-18T11:26:03.202Z,8.47
2023-04-18T11:28:48.983Z,7.80
2023-04-18T11:31:41.873Z,8.43
2023-04-18T11:34:11.190Z,7.93
2023-04-18T11:36:39.965Z,7.97
2023-04-18T11:39:08.289Z,9.63
2023-04-18T11:41:36.210Z,7.67
2023-04-18T11:44:07.403Z,8.03
2023-04-18T11:46:40.980Z,8.63
2023-04-18T11:49:09.462Z,10.00
2023-04-18T11:51:38.584Z,9.87
2023-04-18T11:54:06.977Z,11.60
2023-04-18T11:56:36.657Z,10.33
2023-04-18T11:59:10.010Z,9.50
2023-04-18T12:01:37.960Z,9.07
2023-04-18T12:04:09.283Z,9.77
2023-04-18T12:06:47.528Z,8.53
2023-04-18T12:09:16.431Z,10.87
2023-04-18T12:11:45.291Z,10.90
2023-04-18T12:14:21.919Z,8.20
2023-04-18T12:16:50.898Z,8.23
2023-04-18T12:19:32.198Z,8.30
2023-04-18T12:22:18.721Z,7.83
2023-04-18T12:25:11.492Z,8.00
2023-04-18T12:27:50.827Z,7.73
2023-04-18T12:30:22.308Z,7.70
2023-04-18T12:32:55.724Z,6.67
2023-04-18T12:35:35.257Z,8.43
2023-04-18T12:38:12.205Z,6.63
2023-04-18T12:40:47.749Z,5.80
2023-04-18T12:43:29.075Z,6.60
2023-04-18T12:46:24.314Z,6.27
2023-04-18T12:49:13.686Z,5.83
2023-04-18T12:51:43.691Z,4.37
2023-04-18T12:54:12.663Z,4.90
2023-04-18T12:56:42.075Z,5.70
2023-04-18T12:59:15.761Z,5.80
2023-04-18T13:01:45.624Z,6.00
2023-04-18T13:04:15.129Z,4.40
2023-04-18T13:06:47.379Z,4.17
2023-04-18T13:09:16.702Z,4.20
2023-04-18T13:11:45.013Z,4.50
2023-04-18T13:14:13.344Z,3.50
2023-04-18T13:16:43.651Z,5.37
2023-04-18T13:19:12.965Z,5.10
2023-04-18T13:21:41.343Z,4.77
2023-04-18T13:24:10.641Z,4.10
2023-04-18T13:26:39.024Z,4.13
2023-04-18T13:29:06.954Z,3.90
2023-04-18T13:31:36.592Z,4.97
2023-04-18T13:34:04.993Z,5.93
2023-04-18T13:36:34.903Z,3.43
2023-04-18T13:39:05.645Z,4.23
2023-04-18T13:41:35.471Z,4.10
2023-04-18T13:44:03.282Z,4.20
2023-04-18T13:46:32.394Z,3.40
2023-04-18T13:49:04.896Z,4.93
2023-04-18T13:51:33.264Z,3.80
2023-04-18T13:54:02.360Z,4.40
2023-04-18T13:56:30.781Z,4.17
2023-04-18T13:59:00.282Z,3.33
2023-04-18T14:01:28.661Z,4.17
2023-04-18T14:03:57.513Z,3.93
2023-04-18T14:06:28.534Z,4.00
2023-04-18T14:08:59.222Z,4.37
2023-04-18T14:11:27.473Z,4.32
2023-04-18T14:13:55.444Z,3.97
2023-04-18T14:16:28.276Z,4.80
2023-04-18T14:18:56.840Z,4.18
2023-04-18T14:21:25.132Z,4.53
2023-04-18T14:23:56.036Z,3.73
2023-04-18T14:26:24.115Z,3.67
2023-04-18T14:28:52.293Z,4.43
2023-04-18T14:31:21.056Z,4.10
2023-04-18T14:33:50.641Z,4.00
2023-04-18T14:36:18.751Z,4.03
2023-04-18T14:38:48.525Z,4.10
2023-04-18T14:41:16.615Z,3.92
2023-04-18T14:43:45.327Z,3.40
2023-04-18T14:46:14.203Z,3.60
2023-04-18T14:48:42.435Z,3.92
2023-04-18T14:51:12.335Z,3.20
2023-04-18T14:53:40.411Z,3.80
2023-04-18T14:56:08.876Z,3.67
2023-04-18T14:58:37.215Z,5.30
2023-04-18T15:01:05.628Z,3.80
2023-04-18T15:03:34.029Z,4.45
2023-04-18T15:06:02.193Z,3.65
2023-04-18T15:08:32.903Z,4.53
2023-04-18T15:11:01.274Z,3.97
2023-04-18T15:13:29.306Z,4.35
2023-04-18T15:15:57.654Z,4.73
2023-04-18T15:18:25.675Z,5.17
2023-04-18T15:20:53.749Z,4.13
2023-04-18T15:23:21.746Z,4.80
2023-04-18T15:25:51.151Z,4.33
2023-04-18T15:28:20.027Z,6.93
2023-04-18T15:30:47.865Z,5.07
2023-04-18T15:33:17.882Z,4.80
2023-04-18T15:35:45.885Z,5.63
2023-04-18T15:38:13.993Z,5.10
2023-04-18T15:40:43.518Z,8.30
2023-04-18T15:43:14.285Z,5.13
2023-04-18T15:45:44.282Z,5.27
2023-04-18T15:48:13.311Z,4.97
2023-04-18T15:50:41.917Z,5.10
2023-04-18T15:53:10.207Z,6.57
2023-04-18T15:55:38.354Z,5.67
2023-04-18T15:58:06.641Z,5.47
2023-04-18T16:00:35.979Z,5.03
2023-04-18T16:03:04.644Z,6.20
2023-04-18T16:05:32.640Z,5.37
2023-04-18T16:08:02.216Z,5.40
2023-04-18T16:10:30.241Z,5.23
2023-04-18T16:12:59.421Z,5.40
2023-04-18T16:15:27.635Z,5.80
2023-04-18T16:17:57.366Z,5.97
2023-04-18T16:20:27.109Z,6.03
2023-04-18T16:22:55.328Z,5.83
2023-04-18T16:25:23.597Z,7.07
2023-04-18T16:27:51.581Z,6.07
2023-04-18T16:30:19.872Z,5.87
2023-04-18T16:32:47.981Z,6.07
2023-04-18T16:35:17.377Z,6.03
2023-04-18T16:37:45.381Z,6.30
2023-04-18T16:40:14.334Z,6.20
2023-04-18T16:42:42.339Z,5.43
2023-04-18T16:45:10.734Z,5.97
2023-04-18T16:47:38.835Z,5.77
2023-04-18T16:50:08.559Z,6.30
2023-04-18T16:52:38.010Z,5.70
2023-04-18T16:55:07.806Z,6.67
2023-04-18T16:57:35.680Z,6.40
2023-04-18T17:00:04.456Z,7.03
2023-04-18T17:02:33.386Z,8.17
2023-04-18T17:05:01.703Z,5.90
2023-04-18T17:07:30.424Z,5.20
2023-04-18T17:09:59.762Z,7.23
2023-04-18T17:12:27.793Z,6.77
2023-04-18T17:14:55.742Z,6.87
2023-04-18T17:17:24.396Z,6.63
2023-04-18T17:19:52.434Z,6.13
2023-04-18T17:22:20.479Z,5.37
2023-04-18T17:24:51.584Z,5.30
2023-04-18T17:27:21.014Z,7.23
2023-04-18T17:29:49.126Z,5.30
2023-04-18T17:32:19.676Z,5.47
2023-04-18T17:34:47.875Z,5.83
2023-04-18T17:37:17.159Z,5.47
2023-04-18T17:39:45.105Z,6.40
2023-04-18T17:42:13.043Z,4.87
2023-04-18T17:44:42.349Z,5.60
2023-04-18T17:47:10.320Z,5.73
2023-04-18T17:49:38.410Z,5.90
2023-04-18T17:52:07.398Z,5.97
2023-04-18T17:54:35.571Z,6.80
2023-04-18T17:57:07.508Z,6.10
2023-04-18T17:59:51.757Z,6.97
2023-04-18T18:02:23.580Z,7.07
2023-04-18T18:04:53.562Z,7.77
2023-04-18T18:07:21.857Z,6.77
2023-04-18T18:09:50.808Z,7.17
2023-04-18T18:12:19.576Z,7.33
2023-04-18T18:14:48.117Z,8.00
2023-04-18T18:17:16.744Z,7.30
2023-04-18T18:19:46.568Z,7.80
2023-04-18T18:22:14.628Z,8.07
2023-04-18T18:24:42.749Z,8.00
2023-04-18T18:27:10.914Z,7.23
2023-04-18T18:29:39.544Z,7.87
2023-04-18T18:32:08.521Z,8.40
2023-04-18T18:34:38.651Z,9.03
2023-04-18T18:37:18.615Z,8.40
2023-04-18T18:39:53.114Z,8.17
2023-04-18T18:42:42.036Z,8.27
2023-04-18T18:45:11.353Z,8.93
2023-04-18T18:47:40.205Z,8.43
2023-04-18T18:50:09.053Z,9.93
2023-04-18T18:52:40.781Z,9.60
2023-04-18T18:55:09.814Z,7.60
2023-04-18T18:57:38.300Z,8.10
2023-04-18T19:00:09.593Z,8.40
2023-04-18T19:02:38.119Z,8.27
2023-04-18T19:05:07.779Z,8.17
2023-04-18T19:07:42.329Z,9.00
2023-04-18T19:10:11.614Z,8.80
2023-04-18T19:12:40.928Z,8.90
2023-04-18T19:15:10.413Z,9.17
2023-04-18T19:17:38.908Z,9.37
2023-04-18T19:20:09.127Z,10.07
2023-04-18T19:22:42.270Z,8.80
2023-04-18T19:25:11.135Z,8.70
2023-04-18T19:27:39.388Z,8.67
2023-04-18T19:30:09.464Z,9.43
2023-04-18T19:32:37.727Z,8.70
2023-04-18T19:35:07.188Z,9.33
2023-04-18T19:37:43.991Z,8.63
2023-04-18T19:40:14.882Z,8.90
2023-04-18T19:42:43.189Z,9.77
2023-04-18T19:45:15.196Z,10.40
2023-04-18T19:47:44.428Z,8.40
2023-04-18T19:50:12.968Z,8.50
2023-04-18T19:52:42.936Z,8.50
2023-04-18T19:55:11.607Z,9.60
2023-04-18T19:57:41.522Z,10.13
2023-04-18T20:00:12.721Z,8.43
2023-04-18T20:02:41.892Z,9.83
2023-04-18T20:05:11.020Z,10.07
2023-04-18T20:07:39.590Z,9.87
2023-04-18T20:10:10.812Z,10.17
2023-04-18T20:12:39.097Z,10.27
2023-04-18T20:15:08.245Z,9.97
2023-04-18T20:17:36.653Z,9.50
2023-04-18T20:20:08.049Z,10.10
2023-04-18T20:22:37.191Z,9.40
2023-04-18T20:25:06.278Z,9.80
2023-04-18T20:27:35.896Z,9.67
2023-04-18T20:30:04.556Z,9.63
2023-04-18T20:32:33.556Z,10.30
2023-04-18T20:35:02.756Z,10.40
2023-04-18T20:37:31.030Z,10.03
2023-04-18T20:39:59.151Z,10.57
2023-04-18T20:42:27.505Z,10.07
2023-04-18T20:44:58.815Z,11.40
2023-04-18T20:47:27.715Z,9.50
2023-04-18T20:49:56.656Z,9.80
2023-04-18T20:52:24.870Z,10.07
2023-04-18T20:54:52.971Z,11.37
2023-04-18T20:57:21.573Z,9.00
2023-04-18T20:59:49.654Z,9.97
2023-04-18T21:02:19.172Z,10.10
2023-04-18T21:04:47.828Z,11.07
2023-04-18T21:07:16.536Z,8.80
2023-04-18T21:09:45.011Z,9.43
2023-04-18T21:12:13.014Z,9.30
2023-04-18T21:14:41.315Z,10.73
2023-04-18T21:17:10.549Z,9.73
2023-04-18T21:19:42.647Z,10.10
2023-04-18T21:22:11.724Z,10.03
2023-04-18T21:24:40.472Z,9.23
2023-04-18T21:27:09.045Z,9.93
2023-04-18T21:29:37.416Z,9.47
2023-04-18T21:32:06.041Z,10.03
2023-04-18T21:34:34.569Z,9.80
2023-04-18T21:37:04.506Z,9.33
2023-04-18T21:39:32.671Z,9.63
2023-04-18T21:42:03.554Z,9.97
2023-04-18T21:44:32.092Z,10.20
2023-04-18T21:47:00.521Z,10.93
2023-04-18T21:49:29.158Z,10.20
2023-04-18T21:51:57.661Z,11.67
2023-04-18T21:54:27.485Z,10.83
2023-04-18T21:56:55.882Z,10.10
2023-04-18T21:59:24.328Z,9.37
2023-04-18T22:01:52.436Z,9.70
2023-04-18T22:04:26.331Z,10.43
2023-04-18T22:06:55.543Z,13.60
2023-04-18T22:09:23.655Z,10.23
2023-04-18T22:11:56.625Z,10.30
2023-04-18T22:14:26.081Z,9.93
2023-04-18T22:16:54.817Z,12.33
2023-04-18T22:19:24.877Z,10.07
2023-04-18T22:21:53.436Z,9.87
2023-04-18T22:24:22.029Z,10.70
2023-04-18T22:26:50.266Z,10.53
2023-04-18T22:29:20.088Z,9.70
2023-04-18T22:31:48.268Z,9.80
2023-04-18T22:34:16.880Z,11.50
2023-04-18T22:36:45.683Z,10.30
2023-04-18T22:39:14.082Z,10.53
2023-04-18T22:41:44.454Z,11.23
2023-04-18T22:44:16.336Z,11.10
2023-04-18T22:46:48.145Z,10.13
2023-04-18T22:49:18.062Z,10.43
2023-04-18T22:51:46.693Z,10.40
2023-04-18T22:54:15.074Z,10.57
2023-04-18T22:56:43.631Z,10.43
2023-04-18T22:59:11.881Z,10.73
2023-04-18T23:01:40.749Z,11.40
2023-04-18T23:04:10.408Z,11.30
2023-04-18T23:06:38.877Z,11.23
2023-04-18T23:09:08.314Z,11.90
2023-04-18T23:11:36.690Z,11.83
2023-04-18T23:14:04.707Z,10.70
2023-04-18T23:16:33.071Z,12.00
2023-04-18T23:19:01.374Z,12.53
2023-04-18T23:21:33.777Z,12.77
2023-04-18T23:24:02.043Z,14.53
2023-04-18T23:26:30.068Z,13.03
2023-04-18T23:28:58.270Z,11.37
2023-04-18T23:31:26.758Z,11.43
2023-04-18T23:33:55.109Z,12.97
2023-04-18T23:36:23.619Z,12.37
2023-04-18T23:38:53.490Z,11.40
2023-04-18T23:41:22.222Z,13.40
2023-04-18T23:43:50.339Z,15.50
2023-04-18T23:46:19.061Z,12.93
2023-04-18T23:48:47.051Z,12.83
2023-04-18T23:51:15.472Z,12.83
2023-04-18T23:53:43.900Z,13.50
2023-04-18T23:56:13.502Z,14.80
2023-04-18T23:58:42.133Z,14.63
